createdAt,value
2017-09-27T00:00:23.708Z,20.17
2017-09-27T00:02:52.571Z,19.52
2017-09-27T00:05:21.420Z,21.77
2017-09-27T00:07:50.849Z,23.30
2017-09-27T00:10:19.693Z,20.10
2017-09-27T00:12:48.578Z,22.15
2017-09-27T00:15:17.431Z,20.67
2017-09-27T00:17:46.282Z,22.75
2017-09-27T00:20:15.118Z,19.15
2017-09-27T00:22:43.969Z,22.70
2017-09-27T00:25:14.752Z,22.50
2017-09-27T00:27:43.647Z,21.50
2017-09-27T00:30:12.486Z,21.02
2017-09-27T00:32:41.338Z,21.05
2017-09-27T00:35:10.177Z,22.05
2017-09-27T00:37:39.782Z,22.48
2017-09-27T00:40:09.405Z,21.92
2017-09-27T00:42:38.253Z,21.67
2017-09-27T00:45:07.092Z,21.50
2017-09-27T00:47:35.933Z,19.40
2017-09-27T00:50:04.785Z,20.85
2017-09-27T00:52:33.636Z,19.12
2017-09-27T00:55:03.049Z,20.77
2017-09-27T00:57:33.117Z,21.75
2017-09-27T01:00:01.980Z,19.95
2017-09-27T01:02:30.814Z,26.15
2017-09-27T01:04:59.678Z,19.42
2017-09-27T01:07:28.514Z,20.37
2017-09-27T01:09:57.364Z,22.05
2017-09-27T01:12:26.219Z,25.85
2017-09-27T01:14:55.831Z,22.92
2017-09-27T01:17:25.444Z,20.58
2017-09-27T01:19:53.934Z,24.00
2017-09-27T01:22:22.774Z,23.50
2017-09-27T01:24:50.926Z,19.42
2017-09-27T01:27:19.701Z,34.95
2017-09-27T01:29:48.214Z,18.62
2017-09-27T01:32:17.053Z,18.52
2017-09-27T01:34:45.552Z,25.00
2017-09-27T01:37:14.061Z,21.40
2017-09-27T01:39:42.906Z,21.50
2017-09-27T01:42:11.827Z,22.95
2017-09-27T01:44:39.990Z,21.65
2017-09-27T01:47:08.489Z,18.02
2017-09-27T01:49:36.986Z,24.85
2017-09-27T01:52:06.061Z,22.95
2017-09-27T01:54:34.241Z,20.05
2017-09-27T01:57:02.757Z,24.20
2017-09-27T01:59:31.714Z,29.37
2017-09-27T02:02:00.206Z,20.50
2017-09-27T02:04:29.053Z,21.60
2017-09-27T02:06:57.903Z,24.17
2017-09-27T02:09:26.750Z,25.45
2017-09-27T02:11:56.508Z,24.55
2017-09-27T02:14:25.349Z,20.80
2017-09-27T02:16:54.197Z,22.77
2017-09-27T02:19:23.038Z,25.08
2017-09-27T02:21:51.894Z,20.55
2017-09-27T02:24:20.746Z,22.80
2017-09-27T02:26:50.537Z,26.77
2017-09-27T02:29:19.382Z,24.70
2017-09-27T02:31:49.000Z,24.42
2017-09-27T02:34:18.620Z,24.33
2017-09-27T02:36:48.345Z,24.23
2017-09-27T02:39:17.023Z,21.85
2017-09-27T02:41:45.878Z,22.58
2017-09-27T02:44:16.080Z,22.37
2017-09-27T02:46:44.754Z,24.23
2017-09-27T02:49:13.606Z,26.75
2017-09-27T02:51:43.228Z,20.83
2017-09-27T02:54:12.084Z,23.20
2017-09-27T02:56:41.165Z,22.80
2017-09-27T02:59:10.003Z,24.20
2017-09-27T03:01:40.473Z,24.33
2017-09-27T03:04:09.328Z,25.05
2017-09-27T03:06:38.167Z,21.25
2017-09-27T03:09:07.018Z,25.65
2017-09-27T03:11:36.655Z,24.10
2017-09-27T03:14:05.509Z,23.55
2017-09-27T03:16:35.219Z,21.42
2017-09-27T03:19:05.063Z,21.90
2017-09-27T03:21:34.428Z,21.23
2017-09-27T03:24:03.310Z,24.40
2017-09-27T03:26:32.935Z,24.80
2017-09-27T03:29:01.781Z,24.35
2017-09-27T03:31:30.627Z,26.67
2017-09-27T03:33:59.479Z,24.27
2017-09-27T03:36:28.405Z,29.42
2017-09-27T03:38:57.259Z,22.65
2017-09-27T03:41:26.115Z,23.30
2017-09-27T03:43:54.962Z,24.08
2017-09-27T03:46:24.573Z,24.05
2017-09-27T03:48:53.894Z,22.08
2017-09-27T03:51:23.195Z,24.60
2017-09-27T03:53:52.054Z,25.35
2017-09-27T03:56:21.690Z,29.10
2017-09-27T03:58:50.344Z,24.12
2017-09-27T04:01:19.996Z,25.60
2017-09-27T04:03:48.833Z,23.42
2017-09-27T04:06:17.670Z,26.95
2017-09-27T04:08:47.102Z,31.55
2017-09-27T04:11:15.947Z,23.50
2017-09-27T04:13:45.553Z,21.00
2017-09-27T04:16:15.158Z,26.05
2017-09-27T04:18:44.766Z,25.83
2017-09-27T04:21:14.379Z,25.30
2017-09-27T04:23:43.227Z,26.90
2017-09-27T04:26:12.178Z,27.42
2017-09-27T04:28:41.035Z,26.37
2017-09-27T04:31:09.877Z,25.90
2017-09-27T04:33:38.733Z,22.75
2017-09-27T04:36:08.371Z,23.25
2017-09-27T04:38:37.218Z,23.00
2017-09-27T04:41:06.838Z,24.67
2017-09-27T04:43:36.446Z,28.85
2017-09-27T04:46:06.061Z,28.95
2017-09-27T04:48:35.675Z,27.87
2017-09-27T04:51:05.315Z,29.05
2017-09-27T04:53:34.167Z,24.33
2017-09-27T04:56:03.789Z,27.00
2017-09-27T04:58:32.640Z,27.95
2017-09-27T05:01:01.474Z,28.33
2017-09-27T05:03:30.034Z,36.30
2017-09-27T05:05:59.654Z,30.92
2017-09-27T05:08:43.245Z,28.87
2017-09-27T05:11:11.901Z,34.45
2017-09-27T05:13:40.755Z,28.55
2017-09-27T05:16:10.362Z,43.53
2017-09-27T05:18:39.026Z,30.42
2017-09-27T05:21:07.878Z,29.83
2017-09-27T05:23:36.719Z,35.60
2017-09-27T05:26:05.577Z,30.83
2017-09-27T05:28:34.188Z,27.25
2017-09-27T05:31:03.032Z,27.85
2017-09-27T05:33:31.889Z,31.30
2017-09-27T05:36:01.497Z,31.30
2017-09-27T05:38:31.138Z,34.35
2017-09-27T05:41:01.725Z,29.40
2017-09-27T05:43:30.585Z,38.30
2017-09-27T05:46:00.343Z,28.00
2017-09-27T05:48:43.601Z,37.85
2017-09-27T05:51:12.455Z,28.77
2017-09-27T05:53:41.837Z,36.90
2017-09-27T05:56:10.683Z,35.55
2017-09-27T05:58:39.567Z,36.95
2017-09-27T06:01:08.437Z,35.90
2017-09-27T06:03:38.057Z,37.45
2017-09-27T06:06:07.689Z,41.17
2017-09-27T06:08:36.553Z,35.08
2017-09-27T06:11:06.172Z,42.72
2017-09-27T06:13:36.687Z,37.55
2017-09-27T06:16:06.343Z,38.28
2017-09-27T06:18:35.183Z,35.58
2017-09-27T06:21:04.802Z,41.53
2017-09-27T06:23:35.534Z,37.95
2017-09-27T06:26:05.161Z,37.80
2017-09-27T06:28:34.870Z,33.90
2017-09-27T06:31:03.599Z,33.38
2017-09-27T06:33:32.486Z,43.33
2017-09-27T06:36:01.621Z,35.60
2017-09-27T06:38:31.229Z,28.08
2017-09-27T06:41:01.814Z,25.42
2017-09-27T06:43:30.653Z,29.83
2017-09-27T06:46:01.721Z,34.88
2017-09-27T06:48:30.578Z,34.42
2017-09-27T06:51:00.311Z,28.62
2017-09-27T06:53:30.006Z,31.65
2017-09-27T06:58:34.138Z,32.97
2017-09-27T07:01:03.730Z,26.58
2017-09-27T07:03:32.775Z,31.00
2017-09-27T07:06:01.621Z,24.98
2017-09-27T07:08:30.469Z,35.78
2017-09-27T07:10:59.319Z,30.60
2017-09-27T07:13:28.190Z,27.98
2017-09-27T07:15:57.054Z,31.52
2017-09-27T07:18:26.373Z,28.85
2017-09-27T07:20:55.233Z,25.27
2017-09-27T07:23:24.079Z,27.60
2017-09-27T07:25:53.924Z,26.02
2017-09-27T07:28:23.735Z,25.80
2017-09-27T07:30:53.370Z,31.05
2017-09-27T07:33:22.230Z,27.52
2017-09-27T07:35:51.071Z,31.52
2017-09-27T07:38:19.954Z,26.90
2017-09-27T07:40:49.328Z,23.87
2017-09-27T07:43:18.173Z,28.35
2017-09-27T07:45:47.030Z,25.27
2017-09-27T07:48:15.895Z,28.10
2017-09-27T07:50:44.737Z,27.90
2017-09-27T07:53:14.153Z,28.90
2017-09-27T07:55:43.005Z,28.58
2017-09-27T07:58:11.862Z,22.30
2017-09-27T08:00:40.723Z,21.30
2017-09-27T08:03:09.578Z,26.25
2017-09-27T08:05:39.199Z,23.20
2017-09-27T08:08:08.055Z,23.87
2017-09-27T08:10:36.896Z,20.48
2017-09-27T08:13:06.143Z,19.50
2017-09-27T08:15:34.990Z,20.30
2017-09-27T08:18:03.833Z,19.65
2017-09-27T08:20:33.806Z,22.87
2017-09-27T08:23:02.682Z,20.60
2017-09-27T08:25:31.546Z,22.45
2017-09-27T08:28:01.154Z,20.00
2017-09-27T08:30:29.993Z,28.73
2017-09-27T08:32:59.469Z,17.90
2017-09-27T08:35:28.331Z,19.23
2017-09-27T08:37:57.184Z,17.40
2017-09-27T08:40:26.814Z,16.00
2017-09-27T08:42:55.662Z,17.55
2017-09-27T08:45:24.532Z,14.95
2017-09-27T08:47:53.385Z,19.60
2017-09-27T08:50:22.791Z,17.77
2017-09-27T08:52:52.378Z,17.70
2017-09-27T08:55:21.985Z,18.17
2017-09-27T08:57:50.854Z,20.02
2017-09-27T09:00:19.082Z,21.67
2017-09-27T09:02:48.693Z,14.40
2017-09-27T09:05:17.562Z,20.10
2017-09-27T09:07:46.221Z,17.90
2017-09-27T09:10:15.073Z,15.40
2017-09-27T09:12:44.165Z,15.85
2017-09-27T09:15:13.679Z,15.70
2017-09-27T09:17:43.688Z,16.05
2017-09-27T09:20:12.547Z,18.85
2017-09-27T09:22:41.883Z,17.17
2017-09-27T09:25:11.185Z,34.38
2017-09-27T09:27:40.049Z,18.05
2017-09-27T09:30:08.918Z,15.95
2017-09-27T09:32:39.361Z,17.37
2017-09-27T09:35:10.560Z,14.87
2017-09-27T09:37:40.931Z,16.05
2017-09-27T09:40:10.567Z,19.25
2017-09-27T09:42:39.428Z,16.65
2017-09-27T09:45:09.268Z,17.30
2017-09-27T09:47:38.126Z,15.77
2017-09-27T09:50:07.783Z,16.83
2017-09-27T09:52:36.658Z,14.02
2017-09-27T09:55:06.173Z,13.18
2017-09-27T09:57:36.097Z,13.02
2017-09-27T10:00:05.425Z,12.85
2017-09-27T10:02:34.290Z,15.55
2017-09-27T10:05:04.304Z,17.77
2017-09-27T10:07:33.918Z,11.50
2017-09-27T10:10:03.534Z,13.90
2017-09-27T10:12:32.449Z,11.05
2017-09-27T10:15:02.097Z,14.80
2017-09-27T10:17:31.470Z,14.50
2017-09-27T10:20:01.417Z,12.52
2017-09-27T10:22:30.356Z,14.82
2017-09-27T10:24:59.216Z,15.65
2017-09-27T10:27:28.618Z,13.20
2017-09-27T10:29:58.346Z,12.70
2017-09-27T10:32:27.202Z,14.05
2017-09-27T10:34:56.823Z,12.63
2017-09-27T10:37:25.682Z,14.75
2017-09-27T10:39:54.555Z,12.90
2017-09-27T10:42:23.399Z,10.55
2017-09-27T10:44:52.249Z,9.52
2017-09-27T10:47:21.105Z,13.95
2017-09-27T10:49:50.498Z,13.52
2017-09-27T10:52:20.114Z,13.15
2017-09-27T10:54:48.969Z,10.57
2017-09-27T10:57:18.673Z,18.23
2017-09-27T10:59:48.303Z,13.65
2017-09-27T11:02:17.150Z,10.55
2017-09-27T11:04:46.011Z,13.30
2017-09-27T11:07:15.555Z,11.10
2017-09-27T11:09:44.149Z,13.30
2017-09-27T11:12:13.170Z,12.48
2017-09-27T11:14:42.380Z,14.70
2017-09-27T11:17:11.762Z,13.67
2017-09-27T11:19:41.131Z,10.23
2017-09-27T11:22:09.970Z,10.02
2017-09-27T11:24:38.591Z,14.83
2017-09-27T11:27:08.058Z,11.80
2017-09-27T11:29:36.906Z,13.75
2017-09-27T11:32:05.486Z,14.33
2017-09-27T11:34:34.097Z,10.70
2017-09-27T11:37:03.837Z,10.87
2017-09-27T11:39:33.312Z,9.30
2017-09-27T11:42:01.883Z,19.43
2017-09-27T11:44:30.737Z,12.00
2017-09-27T11:46:59.934Z,12.47
2017-09-27T11:49:28.509Z,13.60
2017-09-27T11:51:57.098Z,11.10
2017-09-27T11:54:25.676Z,8.77
2017-09-27T11:56:54.255Z,10.50
2017-09-27T11:59:23.291Z,10.77
2017-09-27T12:01:53.440Z,11.20
2017-09-27T12:04:22.017Z,14.57
2017-09-27T12:06:50.875Z,8.40
2017-09-27T12:09:20.210Z,10.50
2017-09-27T12:11:48.779Z,14.80
2017-09-27T12:14:18.134Z,12.90
2017-09-27T12:16:46.733Z,9.00
2017-09-27T12:19:15.332Z,12.40
2017-09-27T12:21:44.693Z,19.10
2017-09-27T12:24:13.274Z,16.30
2017-09-27T12:26:41.861Z,12.17
2017-09-27T12:29:10.474Z,14.47
2017-09-27T12:31:39.037Z,8.93
2017-09-27T12:34:07.609Z,15.80
2017-09-27T12:36:36.192Z,8.80
2017-09-27T12:39:04.627Z,11.20
2017-09-27T12:41:33.229Z,13.50
2017-09-27T12:44:02.882Z,16.03
2017-09-27T12:46:31.481Z,10.40
2017-09-27T12:49:00.050Z,10.03
2017-09-27T12:51:28.658Z,12.23
2017-09-27T12:53:57.912Z,22.07
2017-09-27T12:56:26.491Z,17.43
2017-09-27T12:58:54.877Z,14.13
2017-09-27T13:01:23.458Z,11.00
2017-09-27T13:03:52.043Z,15.07
2017-09-27T13:06:20.631Z,9.30
2017-09-27T13:08:49.038Z,6.97
2017-09-27T13:11:17.635Z,14.37
2017-09-27T13:13:47.076Z,15.50
2017-09-27T13:16:16.419Z,8.47
2017-09-27T13:18:45.055Z,11.37
2017-09-27T13:21:14.475Z,10.27
2017-09-27T13:23:43.066Z,34.60
2017-09-27T13:26:11.685Z,25.70
2017-09-27T13:28:44.312Z,51.87
2017-09-27T13:31:14.314Z,22.00
2017-09-27T13:33:42.917Z,14.13
2017-09-27T13:36:12.699Z,16.70
2017-09-27T13:38:42.144Z,18.23
2017-09-27T13:41:10.730Z,17.10
2017-09-27T13:43:40.633Z,14.10
2017-09-27T13:46:09.975Z,12.63
2017-09-27T13:48:38.563Z,13.30
2017-09-27T13:51:07.902Z,17.17
2017-09-27T13:53:37.919Z,12.80
2017-09-27T13:56:06.490Z,13.30
2017-09-27T13:58:35.092Z,13.33
2017-09-27T14:01:03.664Z,9.40
2017-09-27T14:03:32.247Z,13.57
2017-09-27T14:06:00.831Z,13.13
2017-09-27T14:08:30.429Z,20.77
2017-09-27T14:10:59.030Z,15.60
2017-09-27T14:13:28.621Z,16.80
2017-09-27T14:15:57.215Z,14.03
2017-09-27T14:18:25.812Z,13.00
2017-09-27T14:20:55.384Z,15.63
2017-09-27T14:23:23.977Z,17.77
2017-09-27T14:25:52.576Z,20.30
2017-09-27T14:28:21.187Z,26.03
2017-09-27T14:30:50.548Z,17.47
2017-09-27T14:33:19.974Z,12.63
2017-09-27T14:35:48.874Z,15.40
2017-09-27T14:38:18.230Z,11.30
2017-09-27T14:40:47.866Z,18.60
2017-09-27T14:43:17.285Z,13.15
2017-09-27T14:45:46.142Z,16.08
2017-09-27T14:48:15.791Z,31.67
2017-09-27T14:50:44.665Z,20.67
2017-09-27T14:53:13.541Z,21.33
2017-09-27T14:55:42.381Z,24.05
2017-09-27T14:58:11.731Z,32.87
2017-09-27T15:00:40.587Z,14.02
2017-09-27T15:03:09.444Z,23.75
2017-09-27T15:05:38.297Z,18.55
2017-09-27T15:08:07.904Z,13.73
2017-09-27T15:10:36.757Z,15.48
2017-09-27T15:13:05.619Z,24.40
2017-09-27T15:15:34.214Z,25.93
2017-09-27T15:18:02.593Z,18.27
2017-09-27T15:20:31.170Z,17.10
2017-09-27T15:23:00.591Z,17.13
2017-09-27T15:25:29.436Z,15.60
2017-09-27T15:27:58.292Z,16.73
2017-09-27T15:30:26.947Z,11.07
2017-09-27T15:32:55.794Z,18.12
2017-09-27T15:35:25.406Z,24.37
2017-09-27T15:37:55.034Z,20.40
2017-09-27T15:40:23.903Z,17.20
2017-09-27T15:42:53.543Z,16.12
2017-09-27T15:45:22.398Z,19.45
2017-09-27T15:47:52.005Z,18.52
2017-09-27T15:50:21.638Z,14.93
2017-09-27T15:52:50.485Z,24.45
2017-09-27T15:55:19.343Z,14.32
2017-09-27T15:57:48.285Z,22.33
2017-09-27T16:00:17.904Z,19.77
2017-09-27T16:02:46.772Z,17.62
2017-09-27T16:05:15.602Z,26.90
2017-09-27T16:07:44.447Z,18.73
2017-09-27T16:10:13.297Z,23.42
2017-09-27T16:12:42.135Z,13.93
2017-09-27T16:15:10.977Z,18.60
2017-09-27T16:17:39.813Z,25.33
2017-09-27T16:20:08.682Z,18.15
2017-09-27T16:22:37.530Z,21.83
2017-09-27T16:25:06.395Z,18.23
2017-09-27T16:27:36.005Z,19.27
2017-09-27T16:30:04.877Z,25.75
2017-09-27T16:32:33.739Z,20.35
2017-09-27T16:35:03.498Z,18.80
2017-09-27T16:37:33.536Z,32.17
2017-09-27T16:40:02.394Z,18.20
2017-09-27T16:42:32.162Z,31.08
2017-09-27T16:45:01.006Z,19.42
2017-09-27T16:47:30.230Z,27.40
2017-09-27T16:49:59.099Z,22.55
2017-09-27T16:52:27.957Z,24.87
2017-09-27T16:54:56.804Z,33.88
2017-09-27T16:57:27.323Z,30.10
2017-09-27T16:59:56.217Z,37.88
2017-09-27T17:02:25.673Z,26.80
2017-09-27T17:04:54.881Z,35.13
2017-09-27T17:07:24.048Z,31.45
2017-09-27T17:09:52.897Z,47.78
2017-09-27T17:12:21.743Z,39.28
2017-09-27T17:14:52.018Z,43.08
2017-09-27T17:17:21.635Z,40.17
2017-09-27T17:19:50.491Z,47.60
2017-09-27T17:25:02.743Z,45.83
2017-09-27T17:27:31.633Z,42.10
2017-09-27T17:30:05.646Z,40.70
2017-09-27T17:32:35.279Z,47.80
2017-09-27T17:35:04.136Z,42.92
2017-09-27T17:37:33.659Z,53.45
2017-09-27T17:40:03.314Z,48.75
2017-09-27T17:42:32.350Z,56.92
2017-09-27T17:45:01.235Z,54.65
2017-09-27T17:47:30.101Z,47.17
2017-09-27T17:49:59.206Z,55.33
2017-09-27T17:52:28.076Z,48.92
2017-09-27T17:54:56.983Z,54.35
2017-09-27T17:57:28.823Z,47.97
2017-09-27T17:59:57.702Z,47.38
2017-09-27T18:02:26.563Z,55.15
2017-09-27T18:04:58.042Z,66.15
2017-09-27T18:07:29.437Z,56.05
2017-09-27T18:13:13.948Z,55.45
2017-09-27T18:15:52.365Z,63.78
2017-09-27T18:18:22.331Z,57.25
2017-09-27T18:20:51.022Z,62.40
2017-09-27T18:23:19.711Z,57.70
2017-09-27T18:25:48.432Z,59.72
2017-09-27T18:28:18.298Z,61.85
2017-09-27T18:30:47.849Z,59.38
2017-09-27T18:33:17.141Z,58.50
2017-09-27T18:35:47.369Z,62.05
2017-09-27T18:38:16.034Z,69.03
2017-09-27T18:40:44.905Z,71.35
2017-09-27T18:43:13.702Z,70.82
2017-09-27T18:45:42.574Z,74.55
2017-09-27T18:48:11.486Z,67.15
2017-09-27T18:50:40.343Z,73.55
2017-09-27T18:53:08.923Z,67.70
2017-09-27T18:55:37.786Z,65.15
2017-09-27T18:58:09.430Z,64.82
2017-09-27T19:00:39.919Z,66.57
2017-09-27T19:03:09.570Z,72.32
2017-09-27T19:05:39.268Z,65.37
2017-09-27T19:08:08.130Z,76.72
2017-09-27T19:10:36.997Z,71.32
2017-09-27T19:13:06.606Z,70.72
2017-09-27T19:15:36.540Z,70.10
2017-09-27T19:18:05.413Z,72.28
2017-09-27T19:20:35.945Z,70.68
2017-09-27T19:23:05.603Z,62.38
2017-09-27T19:25:34.462Z,71.68
2017-09-27T19:28:03.031Z,75.05
2017-09-27T19:30:32.686Z,72.20
2017-09-27T19:33:01.550Z,75.72
2017-09-27T19:35:30.429Z,76.30
2017-09-27T19:37:59.326Z,67.12
2017-09-27T19:40:28.087Z,67.90
2017-09-27T19:42:56.947Z,70.22
2017-09-27T19:45:25.932Z,72.80
2017-09-27T19:47:54.778Z,67.07
2017-09-27T19:50:24.388Z,67.25
2017-09-27T19:52:53.259Z,73.47
2017-09-27T19:55:22.151Z,67.12
2017-09-27T19:57:51.056Z,63.97
2017-09-27T20:00:20.705Z,65.60
2017-09-27T20:02:50.213Z,69.15
2017-09-27T20:05:20.008Z,67.80
2017-09-27T20:07:48.876Z,62.03
2017-09-27T20:10:19.358Z,68.60
2017-09-27T20:12:48.213Z,60.53
2017-09-27T20:17:50.634Z,65.55
2017-09-27T20:20:20.066Z,65.03
2017-09-27T20:22:48.926Z,63.72
2017-09-27T20:25:17.959Z,69.32
2017-09-27T20:27:46.822Z,57.47
2017-09-27T20:30:15.758Z,61.90
2017-09-27T20:32:45.965Z,62.45
2017-09-27T20:35:14.622Z,52.75
2017-09-27T20:37:43.537Z,58.30
2017-09-27T20:40:12.502Z,63.22
2017-09-27T20:42:42.302Z,63.85
2017-09-27T20:45:11.238Z,60.08
2017-09-27T20:47:40.081Z,59.97
2017-09-27T20:50:09.694Z,61.58
2017-09-27T20:52:38.784Z,67.22
2017-09-27T20:55:07.635Z,67.50
2017-09-27T20:57:37.076Z,64.12
2017-09-27T21:00:05.925Z,59.05
2017-09-27T21:02:34.774Z,67.55
2017-09-27T21:05:03.637Z,62.22
2017-09-27T21:07:32.307Z,64.47
2017-09-27T21:10:02.160Z,62.58
2017-09-27T21:12:30.819Z,55.60
2017-09-27T21:15:00.133Z,59.20
2017-09-27T21:17:28.787Z,64.32
2017-09-27T21:19:57.706Z,60.90
2017-09-27T21:22:26.558Z,61.30
2017-09-27T21:24:55.420Z,54.17
2017-09-27T21:27:24.268Z,59.40
2017-09-27T21:29:54.872Z,55.45
2017-09-27T21:32:24.641Z,63.83
2017-09-27T21:34:54.368Z,70.70
2017-09-27T21:37:23.251Z,58.00
2017-09-27T21:39:52.100Z,65.40
2017-09-27T21:42:21.716Z,61.88
2017-09-27T21:44:51.337Z,60.20
2017-09-27T21:47:20.180Z,59.35
2017-09-27T21:49:49.042Z,59.88
2017-09-27T21:52:17.886Z,58.90
2017-09-27T21:54:48.177Z,65.00
2017-09-27T21:57:17.043Z,68.65
2017-09-27T21:59:45.886Z,69.12
2017-09-27T22:02:16.319Z,60.15
2017-09-27T22:04:45.199Z,61.37
2017-09-27T22:07:14.040Z,65.75
2017-09-27T22:09:42.897Z,57.65
2017-09-27T22:12:12.509Z,56.75
2017-09-27T22:14:42.132Z,69.28
2017-09-27T22:17:10.981Z,56.08
2017-09-27T22:19:39.824Z,69.57
2017-09-27T22:22:10.412Z,74.10
2017-09-27T22:24:40.034Z,63.53
2017-09-27T22:27:09.688Z,63.63
2017-09-27T22:29:38.552Z,62.50
2017-09-27T22:32:08.137Z,58.70
2017-09-27T22:34:37.761Z,64.70
2017-09-27T22:37:07.362Z,57.80
2017-09-27T22:39:36.984Z,59.90
2017-09-27T22:42:05.840Z,61.45
2017-09-27T22:44:34.688Z,61.67
2017-09-27T22:47:03.530Z,61.97
2017-09-27T22:49:32.381Z,63.63
2017-09-27T22:52:01.232Z,54.78
2017-09-27T22:54:30.854Z,59.35
2017-09-27T22:56:59.706Z,57.65
2017-09-27T22:59:28.555Z,54.40
2017-09-27T23:01:57.423Z,58.60
2017-09-27T23:04:26.265Z,59.03
2017-09-27T23:06:55.118Z,58.60
2017-09-27T23:09:23.957Z,53.00
2017-09-27T23:11:52.802Z,50.15
2017-09-27T23:14:21.638Z,48.92
2017-09-27T23:16:50.483Z,52.65
2017-09-27T23:19:19.337Z,62.00
2017-09-27T23:21:49.498Z,55.53
2017-09-27T23:24:18.340Z,55.95
2017-09-27T23:26:47.966Z,58.60
2017-09-27T23:29:17.572Z,59.33
2017-09-27T23:31:47.947Z,53.70
2017-09-27T23:34:16.787Z,55.05
2017-09-27T23:36:46.406Z,48.47
2017-09-27T23:39:16.044Z,53.45
2017-09-27T23:41:44.892Z,53.72
2017-09-27T23:44:15.054Z,50.80
2017-09-27T23:46:43.901Z,46.50
2017-09-27T23:49:12.740Z,53.22
2017-09-27T23:51:41.590Z,52.38
2017-09-27T23:54:11.193Z,44.47
2017-09-27T23:56:40.802Z,46.78
2017-09-27T23:59:10.413Z,58.55
